Time;durP1;ratioP1;P1;durP2;ratioP2;P2;SDS_P1;SDS_P2;PMS_P1;PMS_P2;Temp;Humidity;BMP_temperature;BMP_pressure;BME280_temperature;BME280_humidity;BME280_pressure;Samples;Min_cycle;Max_cycle;Signal;HPM_P1;HPM_P2
2021/07/01 00:02:04;;;;;;;6.78;4.70;;;;;;;20.08;70.81;98824.78;5065641;28;20405;-61
2021/07/01 00:04:43;;;;;;;;;;;;;;;20.34;70.40;98833.13;5104378;27;20787;-61
2021/07/01 00:07:19;;;;;;;4.53;3.88;;;;;;;20.17;70.39;98830.84;5071052;28;20740;-61
2021/07/01 00:09:59;;;;;;;;;;;;;;;20.39;69.79;98830.59;5088520;28;20853;-62
2021/07/01 00:12:36;;;;;;;;;;;;;;;20.47;69.23;98838.53;5065771;28;20396;-61
2021/07/01 00:15:30;;;;;;;5.78;4.07;;;;;;;20.19;70.53;98833.38;5068126;28;20398;-61
2021/07/01 00:18:22;;;;;;;6.28;4.20;;;;;;;20.13;70.66;98816.03;5110738;27;20879;-62
2021/07/01 00:20:58;;;;;;;5.57;4.15;;;;;;;20.11;71.20;98826.28;5068616;28;20391;-62
2021/07/01 00:23:51;;;;;;;;;;;;;;;20.36;70.01;98831.03;5164447;27;20126;-62
2021/07/01 00:26:27;;;;;;;;;;;;;;;20.42;69.29;98826.63;5074237;28;20455;-62
2021/07/01 00:29:10;;;;;;;5.80;3.38;;;;;;;20.15;70.10;98813.94;5070186;28;20376;-63
2021/07/01 00:31:46;;;;;;;5.13;4.07;;;;;;;20.11;70.93;98822.69;5066522;28;20387;-60
2021/07/01 00:34:22;;;;;;;;;;;;;;;20.34;70.13;98830.41;5074472;28;20376;-62
2021/07/01 00:37:04;;;;;;;4.22;3.25;;;;;;;20.17;70.99;98822.69;5067251;28;20384;-63
2021/07/01 00:39:40;;;;;;;;;;;;;;;20.36;70.08;98834.56;5069668;28;20716;-62
2021/07/01 00:42:17;;;;;;;10.60;3.38;;;;;;;20.04;70.99;98818.13;5089589;27;20393;-61
2021/07/01 00:44:59;;;;;;;;;;;;;;;20.27;70.80;98833.13;5106781;27;20376;-62
2021/07/01 00:47:36;;;;;;;5.82;3.70;;;;;;;20.05;71.81;98838.00;5006090;28;20732;-62
2021/07/01 00:50:14;;;;;;;;;;;;;;;20.23;71.29;98830.00;5064336;28;20365;-62
2021/07/01 00:52:49;;;;;;;;;;;;;;;20.32;70.43;98832.50;5066067;28;20385;-61
2021/07/01 00:55:34;;;;;;;6.40;3.35;;;;;;;20.08;71.48;98821.25;5068121;27;20376;-63
2021/07/01 00:58:11;;;;;;;5.53;3.67;;;;;;;20.02;72.36;98828.38;5068627;28;20875;-62
2021/07/01 01:01:04;;;;;;;;;;;;;;;20.23;71.63;98835.44;5070555;28;20387;-62
2021/07/01 01:03:40;;;;;;;4.15;3.47;;;;;;;20.06;71.91;98826.06;5069445;28;20739;-61
2021/07/01 01:06:18;;;;;;;;;;;;;;;20.25;71.43;98837.97;5119864;27;1320778;-62
2021/07/01 01:08:59;;;;;;;5.30;3.90;;;;;;;20.07;71.96;98833.19;5104553;27;20372;-62
2021/07/01 01:11:35;;;;;;;;;;;;;;;20.26;71.32;98830.66;5100598;27;20183;-61
2021/07/01 01:14:14;;;;;;;5.10;3.65;;;;;;;20.09;71.99;98825.66;5105433;27;20369;-62
2021/07/01 01:16:51;;;;;;;7.75;3.90;;;;;;;20.01;72.35;98817.69;5110932;27;20372;-63
2021/07/01 01:19:31;;;;;;;8.43;3.53;;;;;;;19.98;72.62;98827.13;5102065;27;20369;-63
2021/07/01 01:22:07;;;;;;;5.10;3.83;;;;;;;19.93;72.51;98825.03;5070599;28;20405;-61
2021/07/01 01:24:47;;;;;;;6.95;3.65;;;;;;;19.87;72.98;98816.84;5067149;28;20384;-62
2021/07/01 01:27:24;;;;;;;4.82;3.55;;;;;;;19.85;73.22;98819.78;5071001;28;20405;-61
2021/07/01 01:30:06;;;;;;;6.50;3.53;;;;;;;19.88;73.07;98813.06;5145134;27;20385;-62
2021/07/01 01:32:47;;;;;;;;;;;;;;;20.15;72.12;98823.97;5067830;27;20380;-63
2021/07/01 01:35:23;;;;;;;4.53;3.08;;;;;;;20.02;72.67;98814.78;5109684;27;20906;-61
2021/07/01 01:38:01;;;;;;;3.58;3.13;;;;;;;20.00;72.72;98825.03;5069036;28;20376;-61
2021/07/01 01:40:39;;;;;;;4.38;3.25;;;;;;;20.02;72.63;98830.25;5109606;27;20375;-62
2021/07/01 01:43:20;;;;;;;4.55;2.95;;;;;;;19.99;72.63;98822.50;5067182;28;20380;-61
2021/07/01 01:45:56;;;;;;;3.47;3.10;;;;;;;20.01;72.82;98812.25;5069668;28;20387;-61
2021/07/01 01:48:33;;;;;;;4.57;3.17;;;;;;;20.01;72.94;98809.53;5067189;28;20379;-62
2021/07/01 01:51:15;;;;;;;4.07;3.33;;;;;;;20.05;72.65;98816.25;5122455;27;20377;-62
2021/07/01 01:53:51;;;;;;;;;;;;;;;20.29;71.88;98817.44;5067384;27;20403;-61
2021/07/01 01:56:36;;;;;;;;;;;;;;;20.40;71.19;98810.53;5074689;28;20383;-61
2021/07/01 01:59:14;;;;;;;2.70;2.40;;;;;;;20.23;71.82;98808.25;5070627;28;20390;-61
2021/07/01 02:01:56;;;;;;;3.03;2.60;;;;;;;20.21;71.95;98807.63;5108448;27;20369;-63
2021/07/01 02:04:36;;;;;;;4.40;2.63;;;;;;;20.19;72.04;98807.00;5066522;28;20376;-63
2021/07/01 02:07:13;;;;;;;5.70;2.47;;;;;;;20.18;72.21;98802.63;5067818;28;20059;-61
2021/07/01 02:09:52;;;;;;;;;;;;;;;20.45;71.62;98823.50;5121773;27;21103;-63
2021/07/01 02:12:30;;;;;;;;;;;;;;;20.53;70.77;98822.44;5067655;28;20383;-61
2021/07/01 02:15:10;;;;;;;;;;;;;;;20.57;70.10;98815.50;5059788;27;20386;-62
2021/07/01 02:17:52;;;;;;;;;;;;;;;20.61;69.88;98817.56;5087747;28;20917;-61
2021/07/01 02:20:29;;;;;;;2.80;2.03;;;;;;;20.43;70.91;98820.97;5087032;27;20877;-62
2021/07/01 02:23:08;;;;;;;;;;;;;;;20.66;70.31;98822.38;5067449;28;20379;-63
2021/07/01 02:25:45;;;;;;;3.05;2.38;;;;;;;20.53;70.77;98814.28;5071768;28;20700;-62
2021/07/01 02:28:25;;;;;;;;;;;;;;;20.76;70.26;98824.63;5094651;27;20378;-62
2021/07/01 02:31:02;;;;;;;5.00;2.25;;;;;;;20.60;70.70;98812.34;5070066;28;20732;-63
2021/07/01 02:33:41;;;;;;;3.65;2.47;;;;;;;20.58;70.78;98819.91;5070118;28;20372;-62
2021/07/01 02:36:18;;;;;;;6.63;2.50;;;;;;;20.62;70.59;98823.84;5070457;28;20091;-60
2021/07/01 02:38:55;;;;;;;;;;;;;;;20.91;70.04;98832.56;5066416;28;20398;-61
2021/07/01 02:41:31;;;;;;;;;;;;;;;21.02;69.41;98837.34;5069517;28;20386;-62
2021/07/01 02:44:08;;;;;;;1.80;1.70;;;;;;;20.84;70.06;98826.31;5070546;28;20939;-61
2021/07/01 02:46:48;;;;;;;2.47;1.35;;;;;;;20.77;70.16;98832.59;5112688;27;20375;-62
2021/07/01 02:49:24;;;;;;;2.28;1.70;;;;;;;20.77;70.32;98832.59;5069160;27;20075;-62
2021/07/01 02:52:04;;;;;;;;;;;;;;;21.04;69.50;98837.09;5102580;27;20369;-62
2021/07/01 02:54:41;;;;;;;;;;;;;;;21.17;68.89;98836.19;5109969;27;20385;-62
2021/07/01 02:57:20;;;;;;;19.77;2.03;;;;;;;21.02;69.40;98840.06;5088641;27;20397;-63
2021/07/01 02:59:57;;;;;;;3.08;1.27;;;;;;;21.03;69.17;98836.28;5068517;28;20384;-62
2021/07/01 03:02:37;;;;;;;;;;;;;;;21.32;68.55;98839.47;5128602;27;20376;-62
2021/07/01 03:05:14;;;;;;;1.30;1.20;;;;;;;21.26;68.37;98837.63;5067067;28;20740;-61
2021/07/01 03:07:50;;;;;;;;;;;;;;;21.62;67.92;98836.13;5107872;27;20391;-61
2021/07/01 03:10:27;;;;;;;;;;;;;;;21.92;66.77;98843.66;5115743;27;20755;-61
2021/07/01 03:13:03;;;;;;;;;;;;;;;22.11;65.61;98851.09;5092469;27;20382;-61
2021/07/01 03:15:41;;;;;;;2.33;1.10;;;;;;;21.83;65.99;98838.75;5070920;28;20395;-61
2021/07/01 03:18:17;;;;;;;1.30;1.17;;;;;;;21.64;67.08;98828.59;5072442;28;20386;-62
2021/07/01 03:20:53;;;;;;;;;;;;;;;21.85;66.51;98832.00;5104459;27;20380;-62
2021/07/01 03:23:38;;;;;;;;;;;;;;;21.90;66.22;98834.88;5072095;28;20875;-63
2021/07/01 03:26:16;;;;;;;;;;;;;;;21.91;66.13;98835.72;5070308;28;20387;-61
2021/07/01 03:28:53;;;;;;;;;;;;;;;21.96;65.83;98846.78;5156722;27;20692;-60
2021/07/01 03:31:32;;;;;;;;;;;;;;;22.02;65.41;98847.81;5070242;28;20379;-63
2021/07/01 03:34:09;;;;;;;;;;;;;;;21.99;65.56;98840.91;5110050;27;20913;-61
2021/07/01 03:36:49;;;;;;;;;;;;;;;22.03;65.17;98844.03;5087566;27;20908;-63
2021/07/01 03:39:26;;;;;;;;;;;;;;;22.08;65.07;98847.75;5071215;28;20388;-61
2021/07/01 03:42:01;;;;;;;;;;;;;;;22.18;64.84;98849.94;5103275;27;1329366;-61
2021/07/01 03:44:37;;;;;;;;;;;;;;;22.24;64.81;98845.50;5067691;28;20382;-61
2021/07/01 03:47:22;;;;;;;;;;;;;;;22.30;64.43;98855.50;5007812;27;20372;-62
2021/07/01 03:49:59;;;;;;;1.05;1.00;;;;;;;22.01;65.23;98852.41;5067586;28;20721;-62
2021/07/01 03:52:37;;;;;;;;;;;;;;;22.23;64.80;98858.31;5100397;27;20142;-61
2021/07/01 03:55:13;;;;;;;;;;;;;;;22.39;64.79;98863.41;5112488;27;20377;-62
2021/07/01 03:57:50;;;;;;;;;;;;;;;22.49;64.45;98858.28;5072713;28;20376;-61
2021/07/01 04:00:27;;;;;;;;;;;;;;;22.55;63.89;98860.13;5107646;27;20477;-62
2021/07/01 04:03:06;;;;;;;;;;;;;;;22.58;63.87;98856.09;5072269;28;20395;-63
2021/07/01 04:05:43;;;;;;;;;;;;;;;22.61;63.91;98861.94;5071747;28;20402;-62
2021/07/01 04:08:22;;;;;;;;;;;;;;;22.68;63.41;98864.59;5044976;28;20708;-61
2021/07/01 04:10:59;;;;;;;;;;;;;;;22.66;63.54;98872.16;5070364;28;20414;-61
2021/07/01 04:13:51;;;;;;;;;;;;;;;22.51;64.22;98862.47;5068167;28;20728;-61
2021/07/01 04:16:27;;;;;;;;;;;;;;;22.55;64.02;98871.03;5072782;28;20405;-62
2021/07/01 04:19:04;;;;;;;;;;;;;;;22.56;64.00;98866.41;5067661;28;20395;-62
2021/07/01 04:21:41;;;;;;;;;;;;;;;22.54;63.69;98869.34;5071790;28;20410;-61
2021/07/01 04:24:17;;;;;;;;;;;;;;;22.42;64.32;98866.50;5072720;28;20387;-62
2021/07/01 04:26:57;;;;;;;;;;;;;;;22.44;64.11;98872.59;5108587;27;20380;-62
2021/07/01 04:29:34;;;;;;;;;;;;;;;22.47;64.26;98868.59;5110836;27;20399;-62
2021/07/01 04:32:10;;;;;;;;;;;;;;;22.57;63.98;98871.63;5071171;28;20375;-61
2021/07/01 04:34:48;;;;;;;;;;;;;;;22.68;63.85;98878.25;5070238;28;20387;-62
2021/07/01 04:37:23;;;;;;;;;;;;;;;22.78;63.22;98875.81;5072206;28;20380;-61
2021/07/01 04:40:09;;;;;;;;;;;;;;;22.91;62.85;98883.00;5113557;27;20381;-63
2021/07/01 04:42:47;;;;;;;;;;;;;;;23.06;62.53;98884.53;5131087;27;20401;-62
2021/07/01 04:45:23;;;;;;;;;;;;;;;23.14;62.27;98881.47;5069111;28;20371;-61
2021/07/01 04:47:59;;;;;;;;;;;;;;;23.18;62.22;98881.84;5110456;27;20384;-62
2021/07/01 04:50:36;;;;;;;;;;;;;;;23.19;62.08;98883.50;5109722;27;20878;-62
2021/07/01 04:53:13;;;;;;;;;;;;;;;23.21;62.42;98881.38;5067106;28;20379;-62
2021/07/01 04:55:57;;;;;;;;;;;;;;;23.26;62.28;98884.28;5104771;27;20369;-62
2021/07/01 04:58:34;;;;;;;;;;;;;;;23.27;62.28;98869.56;5089815;27;20377;-61
2021/07/01 05:01:10;;;;;;;;;;;;;;;23.24;62.05;98870.00;5067485;28;20387;-62
2021/07/01 05:03:47;;;;;;;;;;;;;;;23.12;62.77;98866.38;5073181;28;20875;-63
2021/07/01 05:06:24;;;;;;;;;;;;;;;23.07;63.39;98862.44;5150319;27;20168;-62
2021/07/01 05:09:00;;;;;;;;;;;;;;;23.20;63.11;98861.41;5067143;28;20394;-62
2021/07/01 05:11:36;;;;;;;2.80;1.38;;;;;;;23.04;64.07;98849.25;5094265;27;1306177;-62
2021/07/01 05:14:12;;;;;;;;;;;;;;;23.83;62.63;98857.63;5106357;27;20377;-62
2021/07/01 05:16:48;;;;;;;;;;;;;;;24.51;60.71;98861.72;5070860;28;20371;-60
2021/07/01 05:19:25;;;;;;;;;;;;;;;25.13;59.22;98866.88;5107655;27;20393;-62
2021/07/01 05:22:07;;;;;;;;;;;;;;;25.58;58.14;98854.31;5066516;28;20387;-62
2021/07/01 05:24:42;;;;;;;1.85;1.52;;;;;;;25.62;57.24;98852.72;5094405;27;1307471;-61
2021/07/01 05:27:27;;;;;;;;;;;;;;;26.07;57.09;98856.50;5172672;27;20118;-62
2021/07/01 05:30:03;;;;;;;;;;;;;;;26.27;56.10;98846.94;5067654;28;20398;-61
2021/07/01 05:32:39;;;;;;;;;;;;;;;26.75;55.52;98853.63;5111759;27;20444;-60
2021/07/01 05:35:18;;;;;;;;;;;;;;;27.00;54.86;98859.75;5160480;27;20878;-61
2021/07/01 05:37:55;;;;;;;1.70;1.45;;;;;;;26.47;54.90;98857.41;5162680;27;20179;-60
2021/07/01 05:40:31;;;;;;;;;;;;;;;26.54;55.11;98862.72;5067212;28;20395;-60
2021/07/01 05:43:08;;;;;;;;;;;;;;;26.20;55.90;98861.66;5073024;28;20379;-60
2021/07/01 05:45:43;;;;;;;2.55;1.35;;;;;;;25.32;57.11;98860.13;5065768;27;1299918;-61
2021/07/01 05:48:21;;;;;;;;;;;;;;;25.35;57.28;98853.31;5128481;27;20563;-61
2021/07/01 05:51:05;;;;;;;;;;;;;;;25.55;57.04;98863.84;5066318;27;20380;-62
2021/07/01 05:53:52;;;;;;;;;;;;;;;27.03;53.77;98865.56;5070579;28;20376;-60
2021/07/01 05:56:36;;;;;;;1.52;1.40;;;;;;;29.99;45.84;98837.88;5107106;27;20874;-60
2021/07/01 05:59:13;;;;;;;1.80;1.50;;;;;;;31.56;41.67;98834.31;5062749;28;20386;-60
2021/07/01 06:01:50;;;;;;;2.20;1.45;;;;;;;33.02;38.31;98842.88;5061360;28;20379;-61
2021/07/01 06:04:26;;;;;;;2.45;1.40;;;;;;;34.67;35.29;98838.56;5072619;28;20393;-60
2021/07/01 06:07:03;;;;;;;1.40;1.30;;;;;;;34.46;34.87;98841.72;5107357;27;21191;-61
2021/07/01 06:09:56;;;;;;;1.50;1.35;;;;;;;33.40;36.31;98846.81;5069424;28;20391;-60
2021/07/01 06:12:33;;;;;;;2.05;1.35;;;;;;;32.62;37.56;98856.09;5097984;27;20373;-61
2021/07/01 06:15:11;;;;;;;1.70;1.60;;;;;;;31.69;39.60;98860.50;5184635;27;20122;-61
2021/07/01 06:17:48;;;;;;;4.50;1.80;;;;;;;30.77;41.40;98862.66;5008147;28;20176;-61
2021/07/01 06:20:27;;;;;;;5.90;1.90;;;;;;;29.72;43.64;98857.47;5133405;27;20351;-61
2021/07/01 06:23:05;;;;;;;2.25;2.05;;;;;;;28.82;45.70;98870.44;5102963;27;20191;-61
2021/07/01 06:25:40;;;;;;;3.28;1.95;;;;;;;28.08;47.32;98862.75;5110643;27;20475;-62
2021/07/01 06:28:17;;;;;;;2.83;2.00;;;;;;;27.54;48.96;98875.50;5072408;28;20389;-62
2021/07/01 06:30:54;;;;;;;2.63;1.65;;;;;;;27.02;49.46;98874.91;5152431;27;20119;-68
2021/07/01 06:33:30;;;;;;;2.38;1.85;;;;;;;26.73;50.17;98875.03;5070161;27;20387;-66
2021/07/01 06:36:10;;;;;;;1.98;1.60;;;;;;;26.44;50.67;98879.84;5069589;28;20386;-70
2021/07/01 06:38:57;;;;;;;2.63;2.28;;;;;;;26.54;50.58;98880.00;5069887;28;20398;-70
2021/07/01 06:41:37;;;;;;;2.28;2.08;;;;;;;27.59;47.90;98867.28;5069946;28;20465;-66
2021/07/01 06:44:15;;;;;;;3.47;2.00;;;;;;;29.89;43.34;98866.28;5111837;27;20872;-66
2021/07/01 06:46:51;;;;;;;2.08;1.67;;;;;;;32.39;37.49;98861.34;5068203;27;2075355;-67
2021/07/01 06:59:52;;;;;;;2.60;1.50;;;;;;;31.42;40.13;98872.03;5114145;27;20148;-67
2021/07/01 07:02:40;;;;;;;2.38;1.50;;;;;;;30.18;42.23;98857.50;5069948;28;20374;-68
2021/07/01 07:05:18;;;;;;;2.58;1.67;;;;;;;29.41;44.26;98873.97;5067273;28;20040;-66
2021/07/01 07:07:58;;;;;;;3.47;1.80;;;;;;;28.57;45.98;98877.44;5068146;28;20378;-66
2021/07/01 07:10:47;;;;;;;1.83;1.73;;;;;;;27.81;47.64;98885.66;5129029;27;20393;-68
2021/07/01 07:13:26;;;;;;;2.55;2.08;;;;;;;27.20;49.32;98881.13;5128002;27;20124;-66
2021/07/01 07:16:05;;;;;;;6.15;2.10;;;;;;;26.76;50.20;98885.50;5139447;27;20332;-66
2021/07/01 07:18:58;;;;;;;1.70;1.60;;;;;;;26.35;51.04;98887.69;5107830;27;20373;-68
2021/07/01 07:21:45;;;;;;;1.90;1.60;;;;;;;26.16;51.45;98892.53;5107272;27;20373;-66
2021/07/01 07:24:29;;;;;;;2.70;1.80;;;;;;;26.45;50.96;98907.03;5093240;27;20851;-66
2021/07/01 07:37:31;;;;;;;3.25;1.67;;;;;;;25.74;54.23;98929.41;5126462;27;20630;-64
2021/07/01 07:40:21;;;;;;;3.55;1.58;;;;;;;24.98;57.15;98922.16;5052452;28;20381;-67
2021/07/01 07:43:04;;;;;;;;;;;;;;;25.05;57.07;98936.53;5068376;27;20386;-68
2021/07/01 07:45:53;;;;;;;2.45;1.20;;;;;;;24.30;59.45;98898.72;5111510;27;20605;-67
2021/07/01 07:48:29;;;;;;;;;;;;;;;24.83;57.47;98939.06;5120886;27;20386;-64
2021/07/01 07:51:06;;;;;;;;;;;;;;;25.06;57.42;98936.28;5092300;27;20738;-63
2021/07/01 07:53:52;;;;;;;;;;;;;;;25.51;55.50;98943.00;5089644;27;20130;-68
2021/07/01 07:56:36;;;;;;;;;;;;;;;26.16;54.21;98944.66;5069312;28;20372;-70
2021/07/01 07:59:20;;;;;;;;;;;;;;;26.84;52.47;98938.34;5109850;27;20892;-71
2021/07/01 08:02:05;;;;;;;4.63;1.48;;;;;;;27.96;51.78;98939.13;5069295;28;20807;-66
2021/07/01 08:04:49;;;;;;;;;;;;;;;28.86;48.89;98934.91;5097513;27;20394;-66
2021/07/01 08:07:38;;;;;;;3.17;1.50;;;;;;;28.41;49.40;98926.88;5069618;28;20374;-68
2021/07/01 08:10:21;;;;;;;1.85;1.55;;;;;;;28.11;50.17;98941.22;5087303;27;20390;-65
2021/07/01 08:13:05;;;;;;;1.70;1.60;;;;;;;27.95;51.22;98946.56;5108745;27;20376;-63
2021/07/01 08:15:50;;;;;;;2.03;1.60;;;;;;;28.22;50.27;98945.72;5127775;27;20142;-67
2021/07/01 08:18:25;;;;;;;2.83;1.88;;;;;;;29.09;46.06;98936.41;5121751;27;20384;-63
2021/07/01 08:21:14;;;;;;;3.38;1.70;;;;;;;29.56;44.75;98939.38;5127430;27;20119;-65
2021/07/01 08:23:50;;;;;;;3.58;2.00;;;;;;;29.93;44.23;98933.66;5109509;27;20125;-66
2021/07/01 08:26:26;;;;;;;6.13;1.77;;;;;;;29.78;43.87;98930.84;5067119;28;20457;-66
2021/07/01 08:29:04;;;;;;;3.47;1.90;;;;;;;29.51;44.33;98940.19;5122785;27;20381;-65
2021/07/01 08:31:46;;;;;;;2.30;2.00;;;;;;;29.55;44.43;98946.81;5067249;28;20383;-67
2021/07/01 08:34:28;;;;;;;2.08;1.77;;;;;;;29.64;44.45;98944.34;5068546;28;20375;-70
2021/07/01 08:37:32;;;;;;;2.40;1.73;;;;;;;29.68;44.05;98947.41;5126183;27;20205;-64
2021/07/01 08:40:10;;;;;;;3.20;1.90;;;;;;;29.57;44.00;98936.31;5128527;27;20828;-67
2021/07/01 08:42:52;;;;;;;1.80;1.70;;;;;;;30.07;43.64;98960.72;5042632;27;20570;-65
2021/07/01 08:45:44;;;;;;;2.40;1.65;;;;;;;30.39;42.95;98943.06;5090559;27;20373;-68
2021/07/01 08:48:24;;;;;;;2.03;1.83;;;;;;;30.60;41.94;98956.84;5096494;27;1292040;-68
2021/07/01 08:51:06;;;;;;;2.00;1.80;;;;;;;30.54;41.32;98953.28;5107475;27;20376;-62
2021/07/01 08:54:23;;;;;;;6.55;1.88;;;;;;;30.12;41.81;98971.75;5108212;27;20388;-70
2021/07/01 08:57:02;;;;;;;2.60;1.90;;;;;;;29.56;43.62;98976.03;5066929;28;20717;-69
2021/07/01 08:59:53;;;;;;;2.10;1.90;;;;;;;29.38;43.67;98977.31;5121801;27;20375;-72
2021/07/01 09:02:33;;;;;;;1.85;1.75;;;;;;;29.25;43.66;98980.56;5110285;27;20385;-65
2021/07/01 09:05:16;;;;;;;2.45;1.60;;;;;;;28.94;43.45;98984.81;5122831;27;20379;-66
2021/07/01 09:07:58;;;;;;;2.38;1.80;;;;;;;28.87;44.05;99000.75;5125636;27;20376;-71
2021/07/01 09:11:03;;;;;;;3.53;1.90;;;;;;;29.18;43.27;99000.94;5068940;28;20879;-68
2021/07/01 09:13:49;;;;;;;1.98;1.88;;;;;;;29.39;41.98;98998.28;5045935;27;1304572;-75
2021/07/01 09:16:30;;;;;;;2.22;1.77;;;;;;;29.38;42.72;98999.38;5124693;27;20420;-74
2021/07/01 09:19:18;;;;;;;2.60;2.03;;;;;;;29.44;42.25;98989.25;5088436;27;20378;-72
2021/07/01 09:22:01;;;;;;;2.45;2.00;;;;;;;29.59;42.47;98988.47;5064417;28;20380;-69
2021/07/01 09:24:49;;;;;;;1.83;1.70;;;;;;;29.76;41.81;98994.56;5121707;27;20402;-70
2021/07/01 09:27:27;;;;;;;1.80;1.70;;;;;;;29.67;41.44;98981.59;5110710;27;20883;-67
2021/07/01 09:30:02;;;;;;;1.98;1.77;;;;;;;29.75;41.46;98986.56;5094508;27;1291407;-72
2021/07/01 09:32:45;;;;;;;2.13;2.00;;;;;;;29.86;40.47;99003.97;5066094;28;20379;-71
2021/07/01 09:35:32;;;;;;;5.53;2.47;;;;;;;29.44;40.41;99003.03;5086358;27;20382;-73
2021/07/01 09:38:16;;;;;;;2.30;2.15;;;;;;;29.31;40.36;98977.56;5097916;27;20852;-71
2021/07/01 09:41:01;;;;;;;5.95;2.25;;;;;;;29.29;41.03;98973.41;5100294;27;20475;-69
2021/07/01 09:43:46;;;;;;;2.78;2.22;;;;;;;29.68;40.51;98991.53;5157931;27;20123;-72
2021/07/01 09:46:28;;;;;;;3.00;2.70;;;;;;;29.73;41.18;98986.84;5127333;27;20128;-71
2021/07/01 09:49:10;;;;;;;4.65;2.50;;;;;;;29.70;40.63;98983.81;5067453;28;20523;-70
2021/07/01 09:51:54;;;;;;;2.28;2.17;;;;;;;29.65;40.75;98988.19;5068293;28;20681;-65
2021/07/01 09:54:33;;;;;;;3.60;2.92;;;;;;;29.73;41.06;98986.03;5106378;27;20373;-71
2021/07/01 09:57:16;;;;;;;3.30;2.60;;;;;;;29.66;41.31;98983.50;5064057;28;20387;-67
2021/07/01 09:59:57;;;;;;;2.67;2.47;;;;;;;29.40;40.83;98985.31;5105122;27;20408;-70
2021/07/01 10:02:34;;;;;;;5.35;2.38;;;;;;;29.19;41.48;98990.75;5102664;27;20388;-72
2021/07/01 10:05:27;;;;;;;2.78;2.38;;;;;;;29.45;41.18;98983.44;5087818;27;20731;-68
2021/07/01 10:08:06;;;;;;;3.58;2.15;;;;;;;29.37;40.70;98998.53;5085866;27;1304304;-72
2021/07/01 10:10:48;;;;;;;3.20;1.98;;;;;;;29.22;41.23;99002.06;5107838;27;20967;-68
2021/07/01 10:13:29;;;;;;;3.03;2.30;;;;;;;29.12;41.10;99001.16;5067663;28;20940;-70
2021/07/01 10:16:21;;;;;;;3.90;2.50;;;;;;;29.10;41.48;99011.63;5085790;27;20382;-71
2021/07/01 10:18:58;;;;;;;3.95;2.40;;;;;;;28.86;41.67;99001.00;5143380;27;20386;-69
2021/07/01 10:21:38;;;;;;;3.75;2.92;;;;;;;28.48;41.95;99009.25;5066269;28;20391;-68
2021/07/01 10:24:21;;;;;;;4.45;2.85;;;;;;;28.16;42.43;99016.38;5067375;28;20708;-69
2021/07/01 10:26:59;;;;;;;2.55;2.30;;;;;;;27.80;43.94;99007.75;5008678;28;20387;-71
2021/07/01 10:29:39;;;;;;;2.83;2.53;;;;;;;27.73;43.99;98974.09;5122362;27;20374;-74
2021/07/01 10:32:36;;;;;;;3.25;2.50;;;;;;;28.38;43.48;99009.16;5068006;28;20375;-77
2021/07/01 10:35:33;;;;;;;4.20;2.40;;;;;;;28.67;42.83;99009.66;5109459;27;20384;-76
2021/07/01 10:38:15;;;;;;;2.88;2.38;;;;;;;28.84;42.77;99008.72;5067968;28;20383;-73
2021/07/01 10:40:56;;;;;;;4.10;2.42;;;;;;;28.99;41.71;99021.75;5051455;28;20911;-78
2021/07/01 10:43:44;;;;;;;4.25;2.60;;;;;;;28.89;41.56;99030.78;5072255;28;20382;-69
2021/07/01 10:46:45;;;;;;;3.30;2.47;;;;;;;28.73;42.40;99019.66;5104441;27;20381;-69
2021/07/01 10:49:33;;;;;;;2.78;2.35;;;;;;;28.28;43.19;99020.91;5168738;27;20470;-71
2021/07/01 10:52:09;;;;;;;4.10;2.75;;;;;;;28.06;43.76;99021.78;5067770;28;20389;-74
2021/07/01 10:55:00;;;;;;;3.80;2.25;;;;;;;28.01;43.95;99027.22;5093922;27;1301502;-70
2021/07/01 10:57:59;;;;;;;3.72;2.20;;;;;;;28.02;43.58;99039.91;4996763;28;20383;-70
2021/07/01 11:00:41;;;;;;;4.22;2.17;;;;;;;28.12;43.23;99045.50;5065073;28;20399;-68
2021/07/01 11:03:33;;;;;;;2.08;1.88;;;;;;;27.98;43.48;99033.25;5106044;27;20376;-66
2021/07/01 11:06:16;;;;;;;3.25;2.20;;;;;;;27.71;43.91;99042.28;5081318;27;20378;-70
2021/07/01 11:09:00;;;;;;;2.47;1.80;;;;;;;27.36;44.47;99036.88;5056268;27;1989287;-71
2021/07/01 11:11:39;;;;;;;1.90;1.80;;;;;;;27.44;44.18;99035.63;5066237;28;20392;-69
2021/07/01 11:14:36;;;;;;;2.00;1.85;;;;;;;27.45;44.38;99036.44;5125893;27;20341;-70
2021/07/01 11:17:14;;;;;;;2.40;1.95;;;;;;;27.41;44.34;99046.28;5159306;27;19924;-76
2021/07/01 11:20:12;;;;;;;5.18;2.05;;;;;;;27.41;44.65;99038.03;5100282;27;20537;-76
2021/07/01 11:22:58;;;;;;;3.95;2.03;;;;;;;27.23;45.23;99039.97;5066943;28;20909;-68
2021/07/01 11:25:42;;;;;;;2.03;1.85;;;;;;;27.13;45.30;99045.34;5120251;27;20703;-67
2021/07/01 11:28:31;;;;;;;1.88;1.77;;;;;;;27.26;44.91;99024.91;5066889;27;20383;-72
2021/07/01 11:31:06;;;;;;;2.97;1.90;;;;;;;27.49;44.38;99024.69;5096985;27;1324988;-70
2021/07/01 11:33:49;;;;;;;3.05;1.98;;;;;;;27.82;43.79;99026.72;5089622;27;20388;-76
2021/07/01 11:36:37;;;;;;;1.90;1.77;;;;;;;28.02;42.99;99029.72;5105224;27;20409;-76
2021/07/01 11:39:17;;;;;;;5.28;1.80;;;;;;;28.19;42.65;99028.81;5066447;28;20378;-76
2021/07/01 11:42:08;;;;;;;2.22;2.03;;;;;;;28.44;42.33;99019.94;5072121;28;20375;-75
2021/07/01 11:44:46;;;;;;;5.00;2.17;;;;;;;28.68;40.99;99029.78;5071476;28;20712;-75
2021/07/01 11:47:20;;;;;;;4.28;1.60;;;;;;;28.84;41.17;99023.34;5060531;27;1321301;-76
2021/07/01 11:49:57;;;;;;;2.30;1.80;;;;;;;28.91;41.15;99023.09;5108497;27;20376;-73
2021/07/01 11:52:33;;;;;;;3.35;1.58;;;;;;;28.88;40.36;99031.88;5107516;27;20876;-76
2021/07/01 11:55:13;;;;;;;1.55;1.45;;;;;;;28.58;40.06;99036.03;5107051;27;20381;-74
2021/07/01 11:57:57;;;;;;;3.22;1.40;;;;;;;28.41;40.80;99033.41;5069080;28;20412;-74
2021/07/01 12:00:34;;;;;;;1.77;1.35;;;;;;;28.52;40.18;99037.91;5068831;28;20897;-74
2021/07/01 12:03:13;;;;;;;1.52;1.40;;;;;;;28.65;39.71;99014.59;5158310;27;20118;-74
2021/07/01 12:05:52;;;;;;;1.73;1.42;;;;;;;29.07;39.23;99024.84;5127747;27;20382;-73
2021/07/01 12:08:28;;;;;;;1.30;1.20;;;;;;;29.30;38.72;99020.00;5107571;27;20235;-76
2021/07/01 12:11:06;;;;;;;1.50;1.40;;;;;;;29.39;38.61;99016.72;5149873;27;20347;-73
2021/07/01 12:13:45;;;;;;;1.13;1.13;;;;;;;29.43;38.68;99015.16;5068263;28;20713;-76
2021/07/01 12:16:22;;;;;;;2.40;1.20;;;;;;;29.33;38.62;99013.97;5107271;27;20089;-76
2021/07/01 12:19:02;;;;;;;2.70;1.10;;;;;;;29.12;38.88;99034.25;5108642;27;20389;-76
2021/07/01 12:21:40;;;;;;;3.38;1.30;;;;;;;28.86;39.03;99034.91;5071210;28;20052;-77
2021/07/01 12:24:20;;;;;;;2.08;1.40;;;;;;;28.42;40.09;98994.59;5111362;27;20454;-75
2021/07/01 12:26:57;;;;;;;2.03;1.20;;;;;;;28.45;40.15;99040.06;5068136;28;20387;-76
2021/07/01 12:29:48;;;;;;;4.75;1.60;;;;;;;28.40;41.02;99040.03;5068877;28;20383;-75
2021/07/01 12:32:25;;;;;;;3.50;1.67;;;;;;;28.23;41.15;99040.94;5067196;28;20658;-74
2021/07/01 12:35:33;;;;;;;2.08;1.33;;;;;;;28.38;41.21;99043.03;5067762;28;20913;-74
2021/07/01 12:38:12;;;;;;;2.20;1.80;;;;;;;28.24;41.76;99041.81;5062979;28;20376;-65
2021/07/01 12:41:04;;;;;;;3.30;1.38;;;;;;;28.10;42.14;99052.38;5064861;28;20380;-65
2021/07/01 12:43:44;;;;;;;1.58;1.48;;;;;;;28.09;42.11;99035.00;5124478;27;20370;-67
2021/07/01 12:46:45;;;;;;;1.90;1.70;;;;;;;28.09;42.12;99051.50;5087821;27;20125;-77
2021/07/01 12:49:32;;;;;;;2.40;1.60;;;;;;;27.85;42.73;99046.31;5069017;28;20382;-71
2021/07/01 12:52:10;;;;;;;4.07;1.90;;;;;;;27.84;42.88;99039.16;5178699;27;20132;-65
2021/07/01 12:54:52;;;;;;;2.67;1.60;;;;;;;28.06;42.23;99041.03;5066226;28;20717;-72
2021/07/01 12:57:29;;;;;;;3.20;2.00;;;;;;;28.30;42.69;99036.06;5128152;27;21021;-72
2021/07/01 13:00:06;;;;;;;1.88;1.77;;;;;;;28.22;43.02;99007.13;5108194;27;20380;-75
2021/07/01 13:03:01;;;;;;;2.08;1.83;;;;;;;28.43;42.99;99045.81;5069801;28;20909;-76
2021/07/01 13:05:43;;;;;;;2.80;1.95;;;;;;;28.36;43.81;99035.03;5068578;28;20373;-74
2021/07/01 13:08:39;;;;;;;5.05;2.85;;;;;;;28.38;44.49;99037.50;5102676;27;20423;-77
2021/07/01 13:11:20;;;;;;;3.10;1.95;;;;;;;28.15;44.79;99039.50;5105239;27;20373;-76
2021/07/01 13:13:58;;;;;;;3.85;1.90;;;;;;;28.04;45.08;99048.72;5069717;28;20374;-77
2021/07/01 13:16:34;;;;;;;5.13;2.22;;;;;;;27.84;46.14;99039.16;5057483;28;20412;-72
2021/07/01 13:19:22;;;;;;;5.65;2.10;;;;;;;27.68;46.19;99049.13;5160078;27;20162;-68
2021/07/01 13:22:03;;;;;;;3.22;1.80;;;;;;;27.34;47.07;99052.78;5106649;27;21470;-75